createdAt,value
2023-01-22T00:01:26.606Z,99747.38
2023-01-22T00:03:57.253Z,99754.36
2023-01-22T00:06:25.529Z,99755.30
2023-01-22T00:08:53.749Z,99760.96
2023-01-22T00:11:24.180Z,99761.55
2023-01-22T00:13:52.380Z,99768.50
2023-01-22T00:16:21.457Z,99772.19
2023-01-22T00:18:49.684Z,99774.14
2023-01-22T00:21:18.372Z,99777.46
2023-01-22T00:23:55.366Z,99781.25
2023-01-22T00:26:23.534Z,99777.88
2023-01-22T00:28:51.977Z,99774.71
2023-01-22T00:31:20.729Z,99780.97
2023-01-22T00:33:49.441Z,99783.73
2023-01-22T00:36:20.477Z,99790.52
2023-01-22T00:38:50.223Z,99792.55
2023-01-22T00:41:20.128Z,99791.58
2023-01-22T00:43:49.572Z,99787.92
2023-01-22T00:46:18.996Z,99784.27
2023-01-22T00:48:49.505Z,99787.73
2023-01-22T00:51:17.854Z,99780.83
2023-01-22T00:53:46.297Z,99782.10
2023-01-22T00:56:15.287Z,99787.02
2023-01-22T00:58:43.544Z,99787.65
2023-01-22T01:01:14.502Z,99787.86
2023-01-22T01:03:42.918Z,99790.20
2023-01-22T01:06:18.780Z,99790.07
2023-01-22T01:08:48.407Z,99793.35
2023-01-22T01:11:22.405Z,99800.04
2023-01-22T01:13:51.833Z,99801.13
2023-01-22T01:16:29.921Z,99801.10
2023-01-22T01:19:03.771Z,99800.56
2023-01-22T01:21:32.605Z,99801.63
2023-01-22T01:24:01.053Z,99805.89
2023-01-22T01:26:29.102Z,99807.35
2023-01-22T01:28:57.302Z,99804.92
2023-01-22T01:31:28.745Z,99801.85
2023-01-22T01:33:58.791Z,99799.35
2023-01-22T01:36:47.194Z,99801.45
2023-01-22T01:39:15.284Z,99800.70
2023-01-22T01:41:43.454Z,99800.23
2023-01-22T01:44:17.655Z,99800.42
2023-01-22T01:46:54.124Z,99807.90
2023-01-22T01:49:28.507Z,99815.71
2023-01-22T01:52:01.429Z,99812.95
2023-01-22T01:54:31.436Z,99815.88
2023-01-22T01:57:09.784Z,99819.35
2023-01-22T01:59:38.980Z,99821.23
2023-01-22T02:03:11.994Z,99824.59
2023-01-22T02:05:41.524Z,99827.45
2023-01-22T02:08:10.127Z,99830.45
2023-01-22T02:10:38.788Z,99833.17
2023-01-22T02:13:15.939Z,99832.18
2023-01-22T02:15:48.052Z,99832.83
2023-01-22T02:18:16.615Z,99830.89
2023-01-22T02:20:57.093Z,99831.47
2023-01-22T02:23:26.104Z,99832.74
2023-01-22T02:25:55.898Z,99835.56
2023-01-22T02:28:24.180Z,99838.20
2023-01-22T02:30:55.029Z,99831.73
2023-01-22T02:33:23.181Z,99824.73
2023-01-22T02:35:51.243Z,99825.19
2023-01-22T02:38:19.744Z,99818.83
2023-01-22T02:40:50.821Z,99819.44
2023-01-22T02:43:20.665Z,99819.46
2023-01-22T02:45:48.693Z,99822.41
2023-01-22T02:48:16.778Z,99822.48
2023-01-22T02:50:45.415Z,99826.45
2023-01-22T02:53:14.012Z,99829.37
2023-01-22T02:55:44.997Z,99829.52
2023-01-22T02:58:13.380Z,99824.58
2023-01-22T03:00:41.626Z,99826.84
2023-01-22T03:03:15.673Z,99824.48
2023-01-22T03:05:48.261Z,99825.60
2023-01-22T03:08:16.714Z,99831.73
2023-01-22T03:10:45.257Z,99835.64
2023-01-22T03:13:32.529Z,99844.12
2023-01-22T03:16:22.892Z,99851.43
2023-01-22T03:19:10.520Z,99850.58
2023-01-22T03:21:44.285Z,99853.44
2023-01-22T03:24:12.531Z,99857.75
2023-01-22T03:26:40.581Z,99859.30
2023-01-22T03:29:09.069Z,99861.05
2023-01-22T03:31:39.154Z,99860.77
2023-01-22T03:34:07.440Z,99863.44
2023-01-22T03:36:35.959Z,99865.07
2023-01-22T03:39:05.995Z,99867.85
2023-01-22T03:41:34.165Z,99869.96
2023-01-22T03:44:03.724Z,99869.54
2023-01-22T03:46:35.721Z,99872.38
2023-01-22T03:49:04.184Z,99870.30
2023-01-22T03:51:32.453Z,99871.32
2023-01-22T03:54:00.610Z,99879.36
2023-01-22T03:56:28.791Z,99881.45
2023-01-22T03:59:00.650Z,99883.58
2023-01-22T04:01:29.958Z,99880.73
2023-01-22T04:03:58.499Z,99880.98
2023-01-22T04:06:28.176Z,99876.48
2023-01-22T04:08:56.751Z,99879.60
2023-01-22T04:11:34.144Z,99881.10
2023-01-22T04:14:02.286Z,99883.96
2023-01-22T04:16:33.050Z,99886.85
2023-01-22T04:19:31.381Z,99882.23
2023-01-22T04:22:17.948Z,99883.24
2023-01-22T04:24:47.668Z,99886.21
2023-01-22T04:27:15.798Z,99885.31
2023-01-22T04:29:43.799Z,99887.97
2023-01-22T04:32:12.387Z,99885.17
2023-01-22T04:35:06.688Z,99879.17
2023-01-22T04:37:43.793Z,99877.15
2023-01-22T04:40:12.396Z,99877.59
2023-01-22T04:42:41.004Z,99883.66
2023-01-22T04:45:09.924Z,99888.02
2023-01-22T04:47:46.505Z,99889.71
2023-01-22T04:50:19.776Z,99888.91
2023-01-22T04:52:51.411Z,99892.67
2023-01-22T04:55:21.511Z,99892.66
2023-01-22T04:57:59.208Z,99891.19
2023-01-22T05:00:28.848Z,99894.63
2023-01-22T05:03:02.055Z,99899.38
2023-01-22T05:05:32.671Z,99901.30
2023-01-22T05:08:00.794Z,99900.68
2023-01-22T05:10:30.063Z,99901.71
2023-01-22T05:13:03.770Z,99904.80
2023-01-22T05:15:32.531Z,99908.00
2023-01-22T05:18:06.064Z,99914.79
2023-01-22T05:20:36.904Z,99914.90
2023-01-22T05:23:05.704Z,99916.78
2023-01-22T05:25:34.662Z,99919.32
2023-01-22T05:28:05.477Z,99921.41
2023-01-22T05:30:58.108Z,99921.83
2023-01-22T05:33:34.224Z,99923.77
2023-01-22T05:36:03.711Z,99926.69
2023-01-22T05:38:32.605Z,99931.63
2023-01-22T05:41:00.798Z,99933.81
2023-01-22T05:43:32.300Z,99933.26
2023-01-22T05:46:05.398Z,99935.55
2023-01-22T05:48:56.673Z,99943.42
2023-01-22T05:51:27.216Z,99947.12
2023-01-22T05:53:55.521Z,99948.87
2023-01-22T05:56:27.976Z,99952.70
2023-01-22T05:58:56.290Z,99948.10
2023-01-22T06:01:24.809Z,99948.73
2023-01-22T06:03:53.971Z,99950.50
2023-01-22T06:06:24.437Z,99953.96
2023-01-22T06:08:52.855Z,99951.72
2023-01-22T06:11:22.253Z,99954.71
2023-01-22T06:13:50.298Z,99953.54
2023-01-22T06:16:20.477Z,99952.54
2023-01-22T06:19:08.254Z,99950.90
2023-01-22T06:21:43.919Z,99950.77
2023-01-22T06:24:12.285Z,99951.81
2023-01-22T06:26:40.308Z,99958.73
2023-01-22T06:29:09.950Z,99966.00
2023-01-22T06:31:39.505Z,99966.95
2023-01-22T06:34:09.478Z,99967.60
2023-01-22T06:36:37.620Z,99967.96
2023-01-22T06:39:06.538Z,99967.36
2023-01-22T06:41:44.731Z,99973.58
2023-01-22T06:44:15.265Z,99977.21
2023-01-22T06:46:43.620Z,99982.60
2023-01-22T06:49:19.741Z,99985.96
2023-01-22T06:51:47.988Z,99993.46
2023-01-22T06:54:16.040Z,99996.08
2023-01-22T06:56:44.721Z,100002.56
2023-01-22T06:59:13.960Z,100003.94
2023-01-22T07:01:42.303Z,100007.02
2023-01-22T07:04:11.114Z,100010.67
2023-01-22T07:06:39.133Z,100009.77
2023-01-22T07:09:07.331Z,100012.48
2023-01-22T07:11:35.836Z,100012.34
2023-01-22T07:14:03.934Z,100009.00
2023-01-22T07:16:32.087Z,100013.67
2023-01-22T07:19:00.881Z,100016.38
2023-01-22T07:21:28.964Z,100022.06
2023-01-22T07:23:57.658Z,100019.64
2023-01-22T07:26:26.483Z,100023.05
2023-01-22T07:28:54.996Z,100026.02
2023-01-22T07:31:23.055Z,100038.12
2023-01-22T07:33:54.703Z,100038.81
2023-01-22T07:36:23.560Z,100037.02
2023-01-22T07:38:51.673Z,100033.77
2023-01-22T07:41:26.092Z,100038.33
2023-01-22T07:43:57.168Z,100043.73
2023-01-22T07:46:26.033Z,100049.95
2023-01-22T07:48:54.165Z,100048.57
2023-01-22T07:51:22.291Z,100052.73
2023-01-22T07:53:52.106Z,100053.48
2023-01-22T07:56:20.185Z,100053.10
2023-01-22T07:58:48.205Z,100062.10
2023-01-22T08:01:17.389Z,100061.27
2023-01-22T08:03:45.522Z,100059.18
2023-01-22T08:06:18.046Z,100067.58
2023-01-22T08:08:48.531Z,100066.61
2023-01-22T08:11:16.768Z,100072.23
2023-01-22T08:13:45.117Z,100076.71
2023-01-22T08:16:13.579Z,100081.43
2023-01-22T08:18:41.691Z,100080.16
2023-01-22T08:21:09.806Z,100080.50
2023-01-22T08:23:38.254Z,100081.47
2023-01-22T08:26:06.422Z,100080.77
2023-01-22T08:28:34.532Z,100083.34
2023-01-22T08:31:03.957Z,100082.29
2023-01-22T08:33:33.890Z,100089.33
2023-01-22T08:36:02.019Z,100093.74
2023-01-22T08:38:31.159Z,100094.19
2023-01-22T08:40:59.348Z,100098.69
2023-01-22T08:43:27.401Z,100095.48
2023-01-22T08:45:55.877Z,100102.27
2023-01-22T08:48:23.952Z,100106.48
2023-01-22T08:50:52.110Z,100108.70
2023-01-22T08:53:23.038Z,100108.80
2023-01-22T08:55:52.786Z,100109.27
2023-01-22T08:58:25.479Z,100110.19
2023-01-22T09:00:57.590Z,100110.30
2023-01-22T09:03:25.889Z,100113.75
2023-01-22T09:05:56.946Z,100112.80
2023-01-22T09:08:25.257Z,100117.90
2023-01-22T09:10:53.299Z,100118.48
2023-01-22T09:13:21.950Z,100109.95
2023-01-22T09:15:50.009Z,100113.98
2023-01-22T09:18:18.009Z,100110.13
2023-01-22T09:20:46.430Z,100109.29
2023-01-22T09:23:15.642Z,100118.85
2023-01-22T09:25:43.796Z,100116.59
2023-01-22T09:28:12.449Z,100110.34
2023-01-22T09:30:41.865Z,100106.88
2023-01-22T09:33:10.059Z,100107.31
2023-01-22T09:35:38.537Z,100110.83
2023-01-22T09:38:06.645Z,100109.83
2023-01-22T09:41:02.244Z,100107.06
2023-01-22T09:43:55.003Z,100107.48
2023-01-22T09:46:37.933Z,100111.60
2023-01-22T09:49:13.901Z,100114.71
2023-01-22T09:51:49.028Z,100113.68
2023-01-22T09:54:17.411Z,100112.94
2023-01-22T09:56:50.596Z,100105.83
2023-01-22T09:59:35.790Z,100099.20
2023-01-22T10:02:19.948Z,100101.53
2023-01-22T10:04:52.445Z,100107.83
2023-01-22T10:07:28.907Z,100105.19
2023-01-22T10:10:02.064Z,100103.48
2023-01-22T10:12:30.385Z,100105.35
2023-01-22T10:14:58.794Z,100105.79
2023-01-22T10:17:33.277Z,100102.25
2023-01-22T10:20:06.708Z,100102.52
2023-01-22T10:22:34.982Z,100105.52
2023-01-22T10:25:03.293Z,100106.44
2023-01-22T10:27:36.796Z,100107.91
2023-01-22T10:30:25.136Z,100104.77
2023-01-22T10:33:01.474Z,100103.17
2023-01-22T10:35:31.997Z,100103.78
2023-01-22T10:38:01.010Z,100105.58
2023-01-22T10:40:41.124Z,100100.77
2023-01-22T10:43:15.307Z,100102.02
2023-01-22T10:46:05.475Z,100101.72
2023-01-22T10:48:34.559Z,100106.11
2023-01-22T10:51:16.699Z,100098.63
2023-01-22T10:53:53.860Z,100099.74
2023-01-22T10:56:30.655Z,100100.42
2023-01-22T10:59:02.390Z,100100.55
2023-01-22T11:01:39.656Z,100096.52
2023-01-22T11:04:27.281Z,100103.71
2023-01-22T11:07:06.204Z,100098.14
2023-01-22T11:10:10.100Z,100087.15
2023-01-22T11:12:42.610Z,100088.91
2023-01-22T11:15:21.953Z,100095.42
2023-01-22T11:17:52.826Z,100094.85
2023-01-22T11:20:47.978Z,100094.10
2023-01-22T11:23:41.117Z,100097.31
2023-01-22T11:26:19.331Z,100092.46
2023-01-22T11:29:00.070Z,100087.93
2023-01-22T11:31:50.433Z,100087.69
2023-01-22T11:34:51.238Z,100089.45
2023-01-22T11:37:21.573Z,100093.06
2023-01-22T11:39:53.778Z,100089.58
2023-01-22T11:42:44.143Z,100090.52
2023-01-22T11:45:24.712Z,100084.42
2023-01-22T11:48:18.801Z,100087.98
2023-01-22T11:51:12.587Z,100089.56
2023-01-22T11:53:58.833Z,100087.95
2023-01-22T11:56:46.286Z,100085.66
2023-01-22T11:59:26.397Z,100082.90
2023-01-22T12:02:06.487Z,100092.58
2023-01-22T12:04:52.737Z,100093.23
2023-01-22T12:07:41.755Z,100097.99
2023-01-22T12:10:54.797Z,100098.38
2023-01-22T12:13:41.705Z,100102.23
2023-01-22T12:16:23.871Z,100105.35
2023-01-22T12:19:25.013Z,100103.90
2023-01-22T12:22:14.501Z,100103.88
2023-01-22T12:24:52.735Z,100111.06
2023-01-22T12:27:32.148Z,100115.37
2023-01-22T12:30:19.271Z,100117.95
2023-01-22T12:32:54.829Z,100116.71
2023-01-22T12:35:23.553Z,100114.45
2023-01-22T12:38:16.225Z,100114.30
2023-01-22T12:41:21.465Z,100114.44
2023-01-22T12:44:03.486Z,100112.85
2023-01-22T12:46:53.342Z,100117.86
2023-01-22T12:49:22.220Z,100118.00
2023-01-22T12:51:52.455Z,100125.83
2023-01-22T12:54:27.934Z,100120.09
2023-01-22T12:57:17.117Z,100121.04
2023-01-22T12:59:48.925Z,100121.66
2023-01-22T13:02:29.415Z,100124.56
2023-01-22T13:05:18.446Z,100122.30
2023-01-22T13:07:47.989Z,100124.22
2023-01-22T13:10:29.516Z,100122.77
2023-01-22T13:13:02.305Z,100125.59
2023-01-22T13:15:38.888Z,100127.68
2023-01-22T13:18:13.398Z,100133.52
2023-01-22T13:21:03.165Z,100135.54
2023-01-22T13:23:34.337Z,100137.56
2023-01-22T13:26:02.561Z,100136.50
2023-01-22T13:28:30.895Z,100137.34
2023-01-22T13:31:13.821Z,100134.94
2023-01-22T13:34:09.047Z,100132.69
2023-01-22T13:36:39.359Z,100137.58
2023-01-22T13:39:07.461Z,100135.38
2023-01-22T13:41:39.411Z,100136.71
2023-01-22T13:44:16.309Z,100136.83
2023-01-22T13:46:44.774Z,100138.92
2023-01-22T13:49:20.468Z,100145.65
2023-01-22T13:51:49.997Z,100147.87
2023-01-22T13:54:29.923Z,100143.98
2023-01-22T13:56:58.098Z,100143.26
2023-01-22T13:59:34.961Z,100142.84
2023-01-22T14:02:30.531Z,100144.95
2023-01-22T14:04:59.018Z,100147.15
2023-01-22T14:07:31.541Z,100150.27
2023-01-22T14:10:22.862Z,100162.14
2023-01-22T14:13:07.333Z,100162.39
2023-01-22T14:15:36.171Z,100167.83
2023-01-22T14:18:16.398Z,100171.27
2023-01-22T14:20:47.072Z,100174.64
2023-01-22T14:23:15.664Z,100175.48
2023-01-22T14:25:53.759Z,100176.38
2023-01-22T14:28:23.895Z,100176.31
2023-01-22T14:30:52.008Z,100175.95
2023-01-22T14:33:28.819Z,100180.98
2023-01-22T14:35:58.015Z,100181.91
2023-01-22T14:38:27.109Z,100183.96
2023-01-22T14:40:55.227Z,100191.44
2023-01-22T14:43:23.942Z,100190.42
2023-01-22T14:45:52.235Z,100190.48
2023-01-22T14:48:20.896Z,100188.71
2023-01-22T14:50:50.472Z,100188.70
2023-01-22T14:53:19.568Z,100193.23
2023-01-22T14:55:47.790Z,100193.68
2023-01-22T14:58:16.442Z,100191.41
2023-01-22T15:00:44.917Z,100197.73
2023-01-22T15:03:13.094Z,100190.23
2023-01-22T15:05:41.162Z,100190.62
2023-01-22T15:08:09.236Z,100199.05
2023-01-22T15:10:37.256Z,100200.37
2023-01-22T15:13:05.257Z,100207.70
2023-01-22T15:15:33.554Z,100214.10
2023-01-22T15:18:01.678Z,100218.81
2023-01-22T15:20:30.372Z,100222.11
2023-01-22T15:22:58.542Z,100224.45
2023-01-22T15:25:27.589Z,100230.73
2023-01-22T15:27:55.847Z,100236.56
2023-01-22T15:30:24.052Z,100238.54
2023-01-22T15:32:52.586Z,100241.66
2023-01-22T15:35:20.852Z,100241.64
2023-01-22T15:37:49.363Z,100250.23
2023-01-22T15:40:18.122Z,100248.59
2023-01-22T15:42:46.447Z,100249.67
2023-01-22T15:45:15.119Z,100250.95
2023-01-22T15:47:43.513Z,100256.89
2023-01-22T15:50:11.789Z,100253.90
2023-01-22T15:52:39.949Z,100256.79
2023-01-22T15:55:08.567Z,100258.48
2023-01-22T15:57:36.728Z,100258.31
2023-01-22T16:00:07.682Z,100259.32
2023-01-22T16:02:41.166Z,100258.00
2023-01-22T16:05:09.676Z,100261.67
2023-01-22T16:07:37.750Z,100263.14
2023-01-22T16:10:06.457Z,100267.38
2023-01-22T16:12:34.940Z,100269.67
2023-01-22T16:15:03.153Z,100273.52
2023-01-22T16:17:31.267Z,100279.23
2023-01-22T16:19:59.405Z,100282.07
2023-01-22T16:22:27.845Z,100281.06
2023-01-22T16:24:56.242Z,100285.98
2023-01-22T16:27:24.488Z,100282.71
2023-01-22T16:29:52.530Z,100284.20
2023-01-22T16:32:20.842Z,100285.80
2023-01-22T16:34:49.239Z,100287.94
2023-01-22T16:37:17.300Z,100291.02
2023-01-22T16:39:45.574Z,100290.56
2023-01-22T16:42:14.153Z,100295.73
2023-01-22T16:44:42.193Z,100292.45
2023-01-22T16:47:10.387Z,100294.32
2023-01-22T16:49:38.556Z,100293.43
2023-01-22T16:52:21.802Z,100295.04
2023-01-22T16:54:50.620Z,100297.69
2023-01-22T16:57:20.262Z,100296.01
2023-01-22T16:59:48.648Z,100295.51
2023-01-22T17:02:19.363Z,100300.92
2023-01-22T17:04:47.732Z,100306.10
2023-01-22T17:07:31.860Z,100306.58
2023-01-22T17:10:01.736Z,100313.03
2023-01-22T17:12:29.955Z,100311.77
2023-01-22T17:14:58.163Z,100312.24
2023-01-22T17:17:26.907Z,100314.14
2023-01-22T17:19:54.962Z,100316.58
2023-01-22T17:22:24.261Z,100312.70
2023-01-22T17:24:52.837Z,100318.50
2023-01-22T17:27:21.562Z,100322.54
2023-01-22T17:29:49.777Z,100324.48
2023-01-22T17:32:18.268Z,100327.96
2023-01-22T17:34:46.315Z,100327.70
2023-01-22T17:37:14.387Z,100329.57
2023-01-22T17:39:43.534Z,100327.98
2023-01-22T17:42:11.613Z,100334.71
2023-01-22T17:44:40.884Z,100335.45
2023-01-22T17:47:09.784Z,100341.20
2023-01-22T17:49:38.619Z,100340.88
2023-01-22T17:52:09.069Z,100342.83
2023-01-22T17:54:38.277Z,100341.79
2023-01-22T17:57:06.696Z,100345.61
2023-01-22T17:59:34.792Z,100348.91
2023-01-22T18:02:03.208Z,100353.80
2023-01-22T18:04:34.510Z,100354.52
2023-01-22T18:07:04.019Z,100355.76
2023-01-22T18:09:32.591Z,100359.64
2023-01-22T18:12:02.891Z,100358.51
2023-01-22T18:14:34.184Z,100362.20
2023-01-22T18:17:02.783Z,100367.68
2023-01-22T18:19:31.377Z,100368.54
2023-01-22T18:21:59.618Z,100373.34
2023-01-22T18:24:31.174Z,100374.25
2023-01-22T18:26:59.353Z,100379.65
2023-01-22T18:29:27.680Z,100386.27
2023-01-22T18:31:56.140Z,100382.67
2023-01-22T18:34:24.402Z,100386.22
2023-01-22T18:36:52.801Z,100386.58
2023-01-22T18:39:21.272Z,100388.50
2023-01-22T18:41:49.491Z,100390.06
2023-01-22T18:44:20.071Z,100389.70
2023-01-22T18:46:51.824Z,100392.44
2023-01-22T18:49:20.022Z,100393.50
2023-01-22T18:51:48.716Z,100394.88
2023-01-22T18:54:17.339Z,100393.42
2023-01-22T18:56:46.340Z,100395.05
2023-01-22T18:59:14.701Z,100393.99
2023-01-22T19:01:50.030Z,100393.90
2023-01-22T19:04:22.066Z,100392.81
2023-01-22T19:06:53.312Z,100395.77
2023-01-22T19:09:21.454Z,100394.95
2023-01-22T19:11:52.309Z,100396.40
2023-01-22T19:14:21.230Z,100400.41
2023-01-22T19:16:53.284Z,100396.73
2023-01-22T19:19:22.841Z,100398.08
2023-01-22T19:21:53.719Z,100392.73
2023-01-22T19:24:25.067Z,100392.39
2023-01-22T19:26:54.909Z,100397.83
2023-01-22T19:29:25.494Z,100400.39
2023-01-22T19:31:55.872Z,100404.34
2023-01-22T19:34:26.658Z,100410.34
2023-01-22T19:36:57.093Z,100416.24
2023-01-22T19:39:25.997Z,100423.02
2023-01-22T19:41:55.072Z,100427.98
2023-01-22T19:44:23.298Z,100429.27
2023-01-22T19:46:51.761Z,100436.61
2023-01-22T19:49:20.085Z,100441.45
2023-01-22T19:51:48.503Z,100444.78
2023-01-22T19:54:17.706Z,100447.23
2023-01-22T19:56:46.440Z,100452.23
2023-01-22T19:59:17.964Z,100456.58
2023-01-22T20:01:48.716Z,100454.73
2023-01-22T20:04:24.002Z,100450.52
2023-01-22T20:07:05.980Z,100453.12
2023-01-22T20:09:35.405Z,100452.41
2023-01-22T20:12:05.604Z,100451.59
2023-01-22T20:14:35.702Z,100456.91
2023-01-22T20:17:03.746Z,100459.33
2023-01-22T20:19:32.075Z,100459.08
2023-01-22T20:22:03.155Z,100457.36
2023-01-22T20:24:31.167Z,100459.10
2023-01-22T20:26:59.810Z,100464.22
2023-01-22T20:29:28.875Z,100463.75
2023-01-22T20:31:59.195Z,100457.02
2023-01-22T20:34:27.799Z,100457.79
2023-01-22T20:36:56.037Z,100459.11
2023-01-22T20:39:24.163Z,100458.75
2023-01-22T20:41:54.137Z,100457.60
2023-01-22T20:44:22.548Z,100456.52
2023-01-22T20:46:51.532Z,100458.37
2023-01-22T20:49:20.014Z,100458.65
2023-01-22T20:51:48.287Z,100456.78
2023-01-22T20:54:18.426Z,100456.86
2023-01-22T20:56:46.813Z,100453.86
2023-01-22T20:59:17.483Z,100459.40
2023-01-22T21:01:46.536Z,100462.44
2023-01-22T21:04:15.496Z,100467.73
2023-01-22T21:06:44.566Z,100470.31
2023-01-22T21:09:12.957Z,100476.70
2023-01-22T21:11:42.411Z,100480.55
2023-01-22T21:14:16.031Z,100482.90
2023-01-22T21:16:44.856Z,100482.64
2023-01-22T21:19:21.310Z,100485.11
2023-01-22T21:21:50.583Z,100488.29
2023-01-22T21:24:19.295Z,100483.77
2023-01-22T21:26:47.514Z,100484.07
2023-01-22T21:29:21.778Z,100485.09
2023-01-22T21:31:51.579Z,100492.00
2023-01-22T21:34:22.729Z,100495.39
2023-01-22T21:36:53.961Z,100501.61
2023-01-22T21:39:24.773Z,100504.59
2023-01-22T21:42:13.134Z,100505.17
2023-01-22T21:44:59.990Z,100509.16
2023-01-22T21:47:28.509Z,100511.71
2023-01-22T21:49:57.765Z,100514.27
2023-01-22T21:52:26.358Z,100515.05
2023-01-22T21:54:54.770Z,100516.52
2023-01-22T21:57:23.181Z,100514.40
2023-01-22T21:59:51.287Z,100517.38
2023-01-22T22:02:20.391Z,100518.70
2023-01-22T22:04:48.882Z,100520.09
2023-01-22T22:07:18.093Z,100528.67
2023-01-22T22:09:46.403Z,100528.79
2023-01-22T22:12:14.783Z,100531.98
2023-01-22T22:14:42.802Z,100536.66
2023-01-22T22:17:10.975Z,100540.47
2023-01-22T22:19:39.361Z,100538.44
2023-01-22T22:22:07.440Z,100534.98
2023-01-22T22:24:35.484Z,100534.65
2023-01-22T22:27:03.951Z,100529.71
2023-01-22T22:29:31.943Z,100527.42
2023-01-22T22:32:00.888Z,100529.89
2023-01-22T22:34:29.081Z,100527.00
2023-01-22T22:36:57.243Z,100525.65
2023-01-22T22:39:25.280Z,100526.13
2023-01-22T22:41:53.348Z,100520.42
2023-01-22T22:44:21.469Z,100517.09
2023-01-22T22:46:49.509Z,100526.27
2023-01-22T22:49:17.616Z,100535.77
2023-01-22T22:51:45.936Z,100540.67
2023-01-22T22:54:16.878Z,100543.26
2023-01-22T22:56:46.947Z,100547.58
2023-01-22T22:59:18.600Z,100545.44
2023-01-22T23:01:48.331Z,100547.14
2023-01-22T23:04:17.459Z,100544.95
2023-01-22T23:06:46.521Z,100547.27
2023-01-22T23:09:17.799Z,100554.67
2023-01-22T23:11:46.599Z,100557.55
2023-01-22T23:14:14.791Z,100557.30
2023-01-22T23:16:43.497Z,100559.42
2023-01-22T23:19:17.254Z,100561.50
2023-01-22T23:21:48.748Z,100557.60
2023-01-22T23:24:16.939Z,100554.63
2023-01-22T23:26:46.097Z,100551.02
2023-01-22T23:29:18.104Z,100558.08
2023-01-22T23:31:46.545Z,100558.02
2023-01-22T23:34:17.581Z,100563.42
2023-01-22T23:36:46.427Z,100565.05
2023-01-22T23:39:16.652Z,100571.62
2023-01-22T23:41:45.671Z,100580.06
2023-01-22T23:44:13.766Z,100580.61
2023-01-22T23:46:42.038Z,100577.63
2023-01-22T23:49:10.684Z,100578.30
2023-01-22T23:51:41.324Z,100580.74
2023-01-22T23:54:09.573Z,100583.31
2023-01-22T23:56:38.069Z,100588.35
2023-01-22T23:59:06.210Z,100595.98
